Monarch, Montana
Current Conditions -  °F | °C
As of 3:56 AM on Thursday 27 Nov 2014 (Local Time) from KGFA Reporting Station
Few Clouds Few Clouds  
Wind Chill: 29°   Ceiling: Unl
Heat Index: 37°   Visibility: 10mi
Dew Point: 33°   Wind: 13mph
Humidity: 86%   Direction: 200°SSW
Pressure: 29.88"   Gusts: NA
Location:  47.1°N, 110.83°W
Report Text: KGFA 271056Z AUTO 20011KT 10SM FEW070 03/01 A2988 RMK AO2 SLP148 T00280006
Loading
Personal Weather Stations






























Interactive Weather Map New forecast layout! Learn more

10-Day Weather Forecast

Advertisements
Track Severe Weather on mobile